sensor_id;sensor_type;location;lat;lon;timestamp;P1;durP1;ratioP1;P2;durP2;ratioP2
34581;SDS011;20814;49.364;8.804;2023-02-15T00:02:25;19.90;;;7.53;;
34581;SDS011;20814;49.364;8.804;2023-02-15T00:04:54;20.63;;;7.35;;
34581;SDS011;20814;49.364;8.804;2023-02-15T00:07:21;15.50;;;7.07;;
34581;SDS011;20814;49.364;8.804;2023-02-15T00:09:48;21.95;;;7.35;;
34581;SDS011;20814;49.364;8.804;2023-02-15T00:12:18;17.52;;;6.93;;
34581;SDS011;20814;49.364;8.804;2023-02-15T00:14:43;18.08;;;7.47;;
34581;SDS011;20814;49.364;8.804;2023-02-15T00:17:08;15.63;;;7.03;;
34581;SDS011;20814;49.364;8.804;2023-02-15T00:19:35;18.27;;;8.05;;
34581;SDS011;20814;49.364;8.804;2023-02-15T00:22:00;17.98;;;7.70;;
34581;SDS011;20814;49.364;8.804;2023-02-15T00:24:25;22.02;;;8.73;;
34581;SDS011;20814;49.364;8.804;2023-02-15T00:26:50;18.60;;;7.68;;
34581;SDS011;20814;49.364;8.804;2023-02-15T00:29:17;17.95;;;6.60;;
34581;SDS011;20814;49.364;8.804;2023-02-15T00:31:42;18.83;;;7.32;;
34581;SDS011;20814;49.364;8.804;2023-02-15T00:34:11;21.40;;;7.78;;
34581;SDS011;20814;49.364;8.804;2023-02-15T00:36:37;21.85;;;8.57;;
34581;SDS011;20814;49.364;8.804;2023-02-15T00:39:02;19.08;;;8.45;;
34581;SDS011;20814;49.364;8.804;2023-02-15T00:41:29;21.35;;;8.13;;
34581;SDS011;20814;49.364;8.804;2023-02-15T00:43:54;20.20;;;7.00;;
34581;SDS011;20814;49.364;8.804;2023-02-15T00:46:19;23.77;;;9.48;;
34581;SDS011;20814;49.364;8.804;2023-02-15T00:48:45;28.33;;;9.20;;
34581;SDS011;20814;49.364;8.804;2023-02-15T00:51:10;25.63;;;9.17;;
34581;SDS011;20814;49.364;8.804;2023-02-15T00:53:35;39.30;;;11.02;;
34581;SDS011;20814;49.364;8.804;2023-02-15T00:56:00;47.37;;;13.20;;
34581;SDS011;20814;49.364;8.804;2023-02-15T00:58:25;39.80;;;11.77;;
34581;SDS011;20814;49.364;8.804;2023-02-15T01:00:52;48.53;;;12.85;;
34581;SDS011;20814;49.364;8.804;2023-02-15T01:03:17;33.85;;;11.70;;
34581;SDS011;20814;49.364;8.804;2023-02-15T01:05:43;24.65;;;9.70;;
34581;SDS011;20814;49.364;8.804;2023-02-15T01:08:08;37.88;;;11.30;;
34581;SDS011;20814;49.364;8.804;2023-02-15T01:10:34;24.98;;;9.85;;
34581;SDS011;20814;49.364;8.804;2023-02-15T01:13:01;24.52;;;8.90;;
34581;SDS011;20814;49.364;8.804;2023-02-15T01:15:26;19.73;;;7.22;;
34581;SDS011;20814;49.364;8.804;2023-02-15T01:17:51;25.40;;;8.87;;
34581;SDS011;20814;49.364;8.804;2023-02-15T01:20:21;22.05;;;8.25;;
34581;SDS011;20814;49.364;8.804;2023-02-15T01:22:46;24.48;;;7.97;;
34581;SDS011;20814;49.364;8.804;2023-02-15T01:25:14;21.45;;;7.70;;
34581;SDS011;20814;49.364;8.804;2023-02-15T01:27:39;21.20;;;8.55;;
34581;SDS011;20814;49.364;8.804;2023-02-15T01:30:05;19.30;;;7.07;;
34581;SDS011;20814;49.364;8.804;2023-02-15T01:32:30;22.85;;;7.72;;
34581;SDS011;20814;49.364;8.804;2023-02-15T01:34:56;16.73;;;7.15;;
34581;SDS011;20814;49.364;8.804;2023-02-15T01:37:21;18.95;;;6.80;;
34581;SDS011;20814;49.364;8.804;2023-02-15T01:39:53;17.90;;;7.20;;
34581;SDS011;20814;49.364;8.804;2023-02-15T01:42:22;20.63;;;7.40;;
34581;SDS011;20814;49.364;8.804;2023-02-15T01:47:21;14.40;;;6.40;;
34581;SDS011;20814;49.364;8.804;2023-02-15T01:49:47;17.95;;;7.38;;
34581;SDS011;20814;49.364;8.804;2023-02-15T01:52:16;19.50;;;6.78;;
34581;SDS011;20814;49.364;8.804;2023-02-15T01:54:42;18.63;;;7.68;;
34581;SDS011;20814;49.364;8.804;2023-02-15T01:57:14;18.27;;;7.10;;
34581;SDS011;20814;49.364;8.804;2023-02-15T01:59:40;16.27;;;6.07;;
34581;SDS011;20814;49.364;8.804;2023-02-15T02:02:09;16.60;;;7.25;;
34581;SDS011;20814;49.364;8.804;2023-02-15T02:04:38;16.17;;;6.97;;
34581;SDS011;20814;49.364;8.804;2023-02-15T02:07:04;19.30;;;7.38;;
34581;SDS011;20814;49.364;8.804;2023-02-15T02:09:31;19.85;;;7.85;;
34581;SDS011;20814;49.364;8.804;2023-02-15T02:11:56;16.98;;;6.72;;
34581;SDS011;20814;49.364;8.804;2023-02-15T02:14:21;18.15;;;6.45;;
34581;SDS011;20814;49.364;8.804;2023-02-15T02:21:51;16.02;;;6.65;;
34581;SDS011;20814;49.364;8.804;2023-02-15T02:32:45;15.75;;;6.18;;
34581;SDS011;20814;49.364;8.804;2023-02-15T02:35:18;17.55;;;6.65;;
34581;SDS011;20814;49.364;8.804;2023-02-15T02:45:52;15.15;;;6.53;;
34581;SDS011;20814;49.364;8.804;2023-02-15T02:48:27;15.40;;;6.05;;
34581;SDS011;20814;49.364;8.804;2023-02-15T02:50:54;15.13;;;6.38;;
34581;SDS011;20814;49.364;8.804;2023-02-15T02:53:19;18.13;;;7.47;;
34581;SDS011;20814;49.364;8.804;2023-02-15T02:56:04;14.60;;;6.33;;
34581;SDS011;20814;49.364;8.804;2023-02-15T02:58:39;17.10;;;6.45;;
34581;SDS011;20814;49.364;8.804;2023-02-15T03:03:49;19.58;;;6.88;;
34581;SDS011;20814;49.364;8.804;2023-02-15T03:06:16;16.52;;;7.57;;
34581;SDS011;20814;49.364;8.804;2023-02-15T03:08:47;15.75;;;5.97;;
34581;SDS011;20814;49.364;8.804;2023-02-15T03:11:13;17.08;;;7.82;;
34581;SDS011;20814;49.364;8.804;2023-02-15T03:13:39;17.65;;;6.80;;
34581;SDS011;20814;49.364;8.804;2023-02-15T03:16:04;20.52;;;7.88;;
34581;SDS011;20814;49.364;8.804;2023-02-15T03:18:54;17.85;;;6.68;;
34581;SDS011;20814;49.364;8.804;2023-02-15T03:23:59;15.80;;;6.30;;
34581;SDS011;20814;49.364;8.804;2023-02-15T03:26:26;17.75;;;6.53;;
34581;SDS011;20814;49.364;8.804;2023-02-15T03:28:52;19.45;;;6.95;;
34581;SDS011;20814;49.364;8.804;2023-02-15T03:31:18;18.20;;;6.82;;
34581;SDS011;20814;49.364;8.804;2023-02-15T03:33:51;16.45;;;7.13;;
34581;SDS011;20814;49.364;8.804;2023-02-15T03:36:18;16.52;;;7.43;;
34581;SDS011;20814;49.364;8.804;2023-02-15T03:41:31;16.73;;;7.80;;
34581;SDS011;20814;49.364;8.804;2023-02-15T03:44:00;19.77;;;7.75;;
34581;SDS011;20814;49.364;8.804;2023-02-15T03:46:32;15.52;;;7.38;;
34581;SDS011;20814;49.364;8.804;2023-02-15T03:49:00;22.67;;;7.68;;
34581;SDS011;20814;49.364;8.804;2023-02-15T03:51:28;15.88;;;6.65;;
34581;SDS011;20814;49.364;8.804;2023-02-15T03:54:00;19.13;;;7.80;;
34581;SDS011;20814;49.364;8.804;2023-02-15T03:56:26;22.65;;;7.60;;
34581;SDS011;20814;49.364;8.804;2023-02-15T03:58:52;20.03;;;7.73;;
34581;SDS011;20814;49.364;8.804;2023-02-15T04:01:52;19.83;;;7.53;;
34581;SDS011;20814;49.364;8.804;2023-02-15T04:04:22;17.13;;;6.72;;
34581;SDS011;20814;49.364;8.804;2023-02-15T04:06:48;26.48;;;8.98;;
34581;SDS011;20814;49.364;8.804;2023-02-15T04:09:14;16.85;;;7.35;;
34581;SDS011;20814;49.364;8.804;2023-02-15T04:11:58;21.73;;;7.65;;
34581;SDS011;20814;49.364;8.804;2023-02-15T04:14:24;18.38;;;7.72;;
34581;SDS011;20814;49.364;8.804;2023-02-15T04:17:08;17.10;;;7.57;;
34581;SDS011;20814;49.364;8.804;2023-02-15T04:19:33;20.45;;;7.80;;
34581;SDS011;20814;49.364;8.804;2023-02-15T04:22:17;18.33;;;7.78;;
34581;SDS011;20814;49.364;8.804;2023-02-15T04:25:01;16.83;;;7.18;;
34581;SDS011;20814;49.364;8.804;2023-02-15T04:27:40;20.80;;;8.35;;
34581;SDS011;20814;49.364;8.804;2023-02-15T04:30:07;23.67;;;8.13;;
34581;SDS011;20814;49.364;8.804;2023-02-15T04:32:32;19.55;;;8.18;;
34581;SDS011;20814;49.364;8.804;2023-02-15T04:34:57;18.92;;;7.35;;
34581;SDS011;20814;49.364;8.804;2023-02-15T04:37:22;20.77;;;7.30;;
34581;SDS011;20814;49.364;8.804;2023-02-15T04:39:48;19.90;;;6.90;;
34581;SDS011;20814;49.364;8.804;2023-02-15T04:42:14;24.00;;;8.70;;
34581;SDS011;20814;49.364;8.804;2023-02-15T04:44:39;22.40;;;8.15;;
34581;SDS011;20814;49.364;8.804;2023-02-15T04:47:04;18.90;;;7.57;;
34581;SDS011;20814;49.364;8.804;2023-02-15T04:49:30;21.63;;;8.10;;
34581;SDS011;20814;49.364;8.804;2023-02-15T04:51:55;20.10;;;8.18;;
34581;SDS011;20814;49.364;8.804;2023-02-15T04:54:20;22.10;;;8.23;;
34581;SDS011;20814;49.364;8.804;2023-02-15T04:56:45;21.65;;;8.00;;
34581;SDS011;20814;49.364;8.804;2023-02-15T04:59:10;24.88;;;8.43;;
34581;SDS011;20814;49.364;8.804;2023-02-15T05:01:36;25.95;;;9.00;;
34581;SDS011;20814;49.364;8.804;2023-02-15T05:04:02;26.40;;;8.95;;
34581;SDS011;20814;49.364;8.804;2023-02-15T05:06:27;28.88;;;8.82;;
34581;SDS011;20814;49.364;8.804;2023-02-15T05:08:52;26.02;;;9.10;;
34581;SDS011;20814;49.364;8.804;2023-02-15T05:11:18;23.30;;;8.75;;
34581;SDS011;20814;49.364;8.804;2023-02-15T05:13:43;21.88;;;8.75;;
34581;SDS011;20814;49.364;8.804;2023-02-15T05:16:08;26.73;;;9.02;;
34581;SDS011;20814;49.364;8.804;2023-02-15T05:18:33;25.77;;;9.60;;
34581;SDS011;20814;49.364;8.804;2023-02-15T05:20:58;21.33;;;8.30;;
34581;SDS011;20814;49.364;8.804;2023-02-15T05:23:23;24.33;;;8.90;;
34581;SDS011;20814;49.364;8.804;2023-02-15T05:25:49;22.38;;;8.88;;
34581;SDS011;20814;49.364;8.804;2023-02-15T05:28:33;20.65;;;7.80;;
34581;SDS011;20814;49.364;8.804;2023-02-15T05:31:12;25.20;;;9.02;;
34581;SDS011;20814;49.364;8.804;2023-02-15T05:33:37;23.02;;;8.60;;
34581;SDS011;20814;49.364;8.804;2023-02-15T05:36:03;21.80;;;7.97;;
34581;SDS011;20814;49.364;8.804;2023-02-15T05:38:29;21.60;;;8.98;;
34581;SDS011;20814;49.364;8.804;2023-02-15T05:40:55;24.10;;;9.38;;
34581;SDS011;20814;49.364;8.804;2023-02-15T05:43:20;24.75;;;9.27;;
34581;SDS011;20814;49.364;8.804;2023-02-15T05:45:46;28.30;;;9.18;;
34581;SDS011;20814;49.364;8.804;2023-02-15T05:48:11;22.48;;;8.52;;
34581;SDS011;20814;49.364;8.804;2023-02-15T05:50:37;30.23;;;9.30;;
34581;SDS011;20814;49.364;8.804;2023-02-15T05:53:03;25.05;;;9.63;;
34581;SDS011;20814;49.364;8.804;2023-02-15T05:55:37;26.55;;;9.32;;
34581;SDS011;20814;49.364;8.804;2023-02-15T05:58:02;22.35;;;8.07;;
34581;SDS011;20814;49.364;8.804;2023-02-15T06:00:27;27.60;;;10.40;;
34581;SDS011;20814;49.364;8.804;2023-02-15T06:02:52;22.38;;;9.70;;
34581;SDS011;20814;49.364;8.804;2023-02-15T06:05:18;21.35;;;9.35;;
34581;SDS011;20814;49.364;8.804;2023-02-15T06:07:43;21.23;;;8.73;;
34581;SDS011;20814;49.364;8.804;2023-02-15T06:10:09;26.00;;;9.15;;
34581;SDS011;20814;49.364;8.804;2023-02-15T06:12:36;21.75;;;8.73;;
34581;SDS011;20814;49.364;8.804;2023-02-15T06:15:01;21.13;;;8.45;;
34581;SDS011;20814;49.364;8.804;2023-02-15T06:17:26;23.50;;;9.35;;
34581;SDS011;20814;49.364;8.804;2023-02-15T06:19:52;20.50;;;8.15;;
34581;SDS011;20814;49.364;8.804;2023-02-15T06:22:18;27.15;;;10.25;;
34581;SDS011;20814;49.364;8.804;2023-02-15T06:24:43;25.77;;;9.85;;
34581;SDS011;20814;49.364;8.804;2023-02-15T06:27:11;21.90;;;8.20;;
34581;SDS011;20814;49.364;8.804;2023-02-15T06:29:37;23.42;;;8.80;;
34581;SDS011;20814;49.364;8.804;2023-02-15T06:32:02;23.88;;;8.73;;
34581;SDS011;20814;49.364;8.804;2023-02-15T06:34:28;21.92;;;9.85;;
34581;SDS011;20814;49.364;8.804;2023-02-15T06:36:53;21.33;;;9.48;;
34581;SDS011;20814;49.364;8.804;2023-02-15T06:39:18;18.57;;;7.83;;
34581;SDS011;20814;49.364;8.804;2023-02-15T06:41:43;23.38;;;9.50;;
34581;SDS011;20814;49.364;8.804;2023-02-15T06:44:09;25.02;;;8.40;;
34581;SDS011;20814;49.364;8.804;2023-02-15T06:46:34;21.85;;;9.07;;
34581;SDS011;20814;49.364;8.804;2023-02-15T06:49:01;21.60;;;8.35;;
34581;SDS011;20814;49.364;8.804;2023-02-15T06:51:26;23.13;;;8.87;;
34581;SDS011;20814;49.364;8.804;2023-02-15T06:53:51;21.17;;;8.35;;
34581;SDS011;20814;49.364;8.804;2023-02-15T06:56:16;19.10;;;8.60;;
34581;SDS011;20814;49.364;8.804;2023-02-15T06:58:42;27.67;;;9.40;;
34581;SDS011;20814;49.364;8.804;2023-02-15T07:01:07;20.65;;;8.25;;
34581;SDS011;20814;49.364;8.804;2023-02-15T07:03:34;21.15;;;8.40;;
34581;SDS011;20814;49.364;8.804;2023-02-15T07:06:00;25.77;;;9.85;;
34581;SDS011;20814;49.364;8.804;2023-02-15T07:08:26;24.83;;;9.27;;
34581;SDS011;20814;49.364;8.804;2023-02-15T07:10:52;20.42;;;9.40;;
34581;SDS011;20814;49.364;8.804;2023-02-15T07:13:17;24.45;;;9.60;;
34581;SDS011;20814;49.364;8.804;2023-02-15T07:15:43;24.38;;;9.85;;
34581;SDS011;20814;49.364;8.804;2023-02-15T07:18:08;21.50;;;9.40;;
34581;SDS011;20814;49.364;8.804;2023-02-15T07:20:34;23.13;;;8.68;;
34581;SDS011;20814;49.364;8.804;2023-02-15T07:23:00;26.83;;;9.77;;
34581;SDS011;20814;49.364;8.804;2023-02-15T07:25:26;20.23;;;8.30;;
34581;SDS011;20814;49.364;8.804;2023-02-15T07:27:55;22.15;;;8.30;;
34581;SDS011;20814;49.364;8.804;2023-02-15T07:30:21;24.17;;;8.98;;
34581;SDS011;20814;49.364;8.804;2023-02-15T07:32:46;20.00;;;8.35;;
34581;SDS011;20814;49.364;8.804;2023-02-15T07:35:30;18.10;;;8.05;;
34581;SDS011;20814;49.364;8.804;2023-02-15T07:37:55;24.83;;;9.17;;
34581;SDS011;20814;49.364;8.804;2023-02-15T07:40:20;25.50;;;9.02;;
34581;SDS011;20814;49.364;8.804;2023-02-15T07:42:48;23.75;;;8.98;;
34581;SDS011;20814;49.364;8.804;2023-02-15T07:45:13;23.70;;;10.17;;
34581;SDS011;20814;49.364;8.804;2023-02-15T07:47:38;23.02;;;9.13;;
34581;SDS011;20814;49.364;8.804;2023-02-15T07:50:04;21.43;;;7.87;;
34581;SDS011;20814;49.364;8.804;2023-02-15T07:52:30;24.88;;;8.32;;
34581;SDS011;20814;49.364;8.804;2023-02-15T07:54:55;20.73;;;9.23;;
34581;SDS011;20814;49.364;8.804;2023-02-15T07:57:20;21.47;;;8.53;;
34581;SDS011;20814;49.364;8.804;2023-02-15T07:59:45;22.90;;;8.57;;
34581;SDS011;20814;49.364;8.804;2023-02-15T08:02:11;22.02;;;7.85;;
34581;SDS011;20814;49.364;8.804;2023-02-15T08:04:36;20.90;;;8.80;;
34581;SDS011;20814;49.364;8.804;2023-02-15T08:07:02;21.95;;;8.90;;
34581;SDS011;20814;49.364;8.804;2023-02-15T08:09:29;21.25;;;8.70;;
34581;SDS011;20814;49.364;8.804;2023-02-15T08:11:54;24.92;;;9.40;;
34581;SDS011;20814;49.364;8.804;2023-02-15T08:14:19;21.80;;;8.88;;
34581;SDS011;20814;49.364;8.804;2023-02-15T08:16:46;24.17;;;9.68;;
34581;SDS011;20814;49.364;8.804;2023-02-15T08:19:13;24.00;;;9.18;;
34581;SDS011;20814;49.364;8.804;2023-02-15T08:21:40;22.65;;;9.23;;
34581;SDS011;20814;49.364;8.804;2023-02-15T08:24:05;21.73;;;9.43;;
34581;SDS011;20814;49.364;8.804;2023-02-15T08:26:31;22.30;;;9.35;;
34581;SDS011;20814;49.364;8.804;2023-02-15T08:28:57;20.52;;;8.38;;
34581;SDS011;20814;49.364;8.804;2023-02-15T08:31:22;21.48;;;9.07;;
34581;SDS011;20814;49.364;8.804;2023-02-15T08:33:48;22.15;;;8.05;;
34581;SDS011;20814;49.364;8.804;2023-02-15T08:36:16;24.05;;;9.65;;
34581;SDS011;20814;49.364;8.804;2023-02-15T08:38:41;18.60;;;8.05;;
34581;SDS011;20814;49.364;8.804;2023-02-15T08:41:17;21.73;;;9.27;;
34581;SDS011;20814;49.364;8.804;2023-02-15T08:43:44;20.60;;;8.43;;
34581;SDS011;20814;49.364;8.804;2023-02-15T08:46:10;24.77;;;9.30;;
34581;SDS011;20814;49.364;8.804;2023-02-15T08:48:36;21.98;;;8.40;;
34581;SDS011;20814;49.364;8.804;2023-02-15T08:51:05;22.52;;;9.38;;
34581;SDS011;20814;49.364;8.804;2023-02-15T08:53:31;23.95;;;9.45;;
34581;SDS011;20814;49.364;8.804;2023-02-15T08:55:57;25.55;;;9.27;;
34581;SDS011;20814;49.364;8.804;2023-02-15T08:58:22;26.45;;;9.98;;
34581;SDS011;20814;49.364;8.804;2023-02-15T09:00:47;27.05;;;8.98;;
34581;SDS011;20814;49.364;8.804;2023-02-15T09:03:12;19.70;;;8.43;;
34581;SDS011;20814;49.364;8.804;2023-02-15T09:05:38;22.58;;;9.05;;
34581;SDS011;20814;49.364;8.804;2023-02-15T09:08:03;21.92;;;9.27;;
34581;SDS011;20814;49.364;8.804;2023-02-15T09:10:28;26.02;;;10.45;;
34581;SDS011;20814;49.364;8.804;2023-02-15T09:12:53;21.92;;;9.10;;
34581;SDS011;20814;49.364;8.804;2023-02-15T09:15:18;26.52;;;10.18;;
34581;SDS011;20814;49.364;8.804;2023-02-15T09:17:44;22.43;;;9.40;;
34581;SDS011;20814;49.364;8.804;2023-02-15T09:20:09;20.00;;;8.80;;
34581;SDS011;20814;49.364;8.804;2023-02-15T09:22:34;23.67;;;8.65;;
34581;SDS011;20814;49.364;8.804;2023-02-15T09:24:59;23.02;;;9.32;;
34581;SDS011;20814;49.364;8.804;2023-02-15T09:27:24;23.02;;;8.80;;
34581;SDS011;20814;49.364;8.804;2023-02-15T09:29:49;19.83;;;8.57;;
34581;SDS011;20814;49.364;8.804;2023-02-15T09:32:15;24.67;;;9.20;;
34581;SDS011;20814;49.364;8.804;2023-02-15T09:34:40;23.40;;;10.18;;
34581;SDS011;20814;49.364;8.804;2023-02-15T09:37:05;25.33;;;8.23;;
34581;SDS011;20814;49.364;8.804;2023-02-15T09:39:31;23.27;;;9.27;;
34581;SDS011;20814;49.364;8.804;2023-02-15T09:44:44;26.50;;;9.75;;
34581;SDS011;20814;49.364;8.804;2023-02-15T09:47:24;24.17;;;8.95;;
34581;SDS011;20814;49.364;8.804;2023-02-15T09:49:58;19.30;;;8.48;;
34581;SDS011;20814;49.364;8.804;2023-02-15T09:52:35;22.70;;;8.80;;
34581;SDS011;20814;49.364;8.804;2023-02-15T10:05:16;23.40;;;9.20;;
34581;SDS011;20814;49.364;8.804;2023-02-15T10:08:12;26.25;;;9.45;;
34581;SDS011;20814;49.364;8.804;2023-02-15T10:10:53;26.00;;;8.85;;
34581;SDS011;20814;49.364;8.804;2023-02-15T10:16:09;20.58;;;8.38;;
34581;SDS011;20814;49.364;8.804;2023-02-15T10:18:42;25.65;;;9.32;;
34581;SDS011;20814;49.364;8.804;2023-02-15T10:21:37;26.92;;;10.18;;
34581;SDS011;20814;49.364;8.804;2023-02-15T10:26:45;27.48;;;10.07;;
34581;SDS011;20814;49.364;8.804;2023-02-15T10:29:58;22.83;;;9.52;;
34581;SDS011;20814;49.364;8.804;2023-02-15T10:31:59;25.33;;;9.18;;
34581;SDS011;20814;49.364;8.804;2023-02-15T10:34:34;22.88;;;9.10;;
34581;SDS011;20814;49.364;8.804;2023-02-15T10:39:44;23.15;;;9.50;;
34581;SDS011;20814;49.364;8.804;2023-02-15T10:42:17;21.23;;;9.77;;
34581;SDS011;20814;49.364;8.804;2023-02-15T10:47:34;23.65;;;10.18;;
34581;SDS011;20814;49.364;8.804;2023-02-15T10:50:10;26.27;;;9.55;;
34581;SDS011;20814;49.364;8.804;2023-02-15T11:03:11;24.35;;;9.88;;
34581;SDS011;20814;49.364;8.804;2023-02-15T11:08:25;24.30;;;9.65;;
34581;SDS011;20814;49.364;8.804;2023-02-15T11:10:52;23.77;;;9.60;;
34581;SDS011;20814;49.364;8.804;2023-02-15T11:13:19;24.70;;;10.60;;
34581;SDS011;20814;49.364;8.804;2023-02-15T11:15:53;23.15;;;8.75;;
34581;SDS011;20814;49.364;8.804;2023-02-15T11:18:30;26.35;;;10.35;;
34581;SDS011;20814;49.364;8.804;2023-02-15T11:21:01;21.95;;;10.30;;
34581;SDS011;20814;49.364;8.804;2023-02-15T11:23:27;27.42;;;10.65;;
34581;SDS011;20814;49.364;8.804;2023-02-15T11:25:54;24.27;;;10.40;;
34581;SDS011;20814;49.364;8.804;2023-02-15T11:28:25;30.92;;;10.50;;
34581;SDS011;20814;49.364;8.804;2023-02-15T11:30:54;22.85;;;10.20;;
34581;SDS011;20814;49.364;8.804;2023-02-15T11:33:24;24.65;;;9.63;;
34581;SDS011;20814;49.364;8.804;2023-02-15T11:35:53;23.65;;;10.77;;
34581;SDS011;20814;49.364;8.804;2023-02-15T11:38:24;24.55;;;10.10;;
34581;SDS011;20814;49.364;8.804;2023-02-15T11:43:17;24.63;;;10.43;;
34581;SDS011;20814;49.364;8.804;2023-02-15T11:45:45;24.42;;;10.73;;
34581;SDS011;20814;49.364;8.804;2023-02-15T11:48:11;28.80;;;11.35;;
34581;SDS011;20814;49.364;8.804;2023-02-15T11:50:37;22.45;;;9.15;;
34581;SDS011;20814;49.364;8.804;2023-02-15T11:53:09;20.60;;;9.57;;
34581;SDS011;20814;49.364;8.804;2023-02-15T11:55:36;22.35;;;10.30;;
34581;SDS011;20814;49.364;8.804;2023-02-15T11:58:03;25.55;;;10.48;;
34581;SDS011;20814;49.364;8.804;2023-02-15T12:00:32;23.70;;;10.50;;
34581;SDS011;20814;49.364;8.804;2023-02-15T12:03:00;25.58;;;11.05;;
34581;SDS011;20814;49.364;8.804;2023-02-15T12:05:27;25.23;;;11.23;;
34581;SDS011;20814;49.364;8.804;2023-02-15T12:07:54;24.08;;;10.55;;
34581;SDS011;20814;49.364;8.804;2023-02-15T12:10:24;25.02;;;11.25;;
34581;SDS011;20814;49.364;8.804;2023-02-15T12:13:08;28.20;;;9.95;;
34581;SDS011;20814;49.364;8.804;2023-02-15T12:15:33;28.15;;;11.27;;
34581;SDS011;20814;49.364;8.804;2023-02-15T12:18:00;27.42;;;11.85;;
34581;SDS011;20814;49.364;8.804;2023-02-15T12:20:28;28.00;;;11.27;;
34581;SDS011;20814;49.364;8.804;2023-02-15T12:22:58;26.40;;;10.40;;
34581;SDS011;20814;49.364;8.804;2023-02-15T12:25:33;27.75;;;10.63;;
34581;SDS011;20814;49.364;8.804;2023-02-15T12:28:00;29.60;;;11.05;;
34581;SDS011;20814;49.364;8.804;2023-02-15T12:30:30;24.10;;;9.90;;
34581;SDS011;20814;49.364;8.804;2023-02-15T12:32:59;22.55;;;10.60;;
34581;SDS011;20814;49.364;8.804;2023-02-15T12:35:29;26.10;;;10.23;;
34581;SDS011;20814;49.364;8.804;2023-02-15T12:37:56;24.20;;;9.63;;
34581;SDS011;20814;49.364;8.804;2023-02-15T12:40:23;26.65;;;11.52;;
34581;SDS011;20814;49.364;8.804;2023-02-15T12:42:48;29.20;;;10.98;;
34581;SDS011;20814;49.364;8.804;2023-02-15T12:45:27;24.88;;;10.32;;
34581;SDS011;20814;49.364;8.804;2023-02-15T12:50:33;22.15;;;10.27;;
34581;SDS011;20814;49.364;8.804;2023-02-15T12:55:55;24.80;;;9.90;;
34581;SDS011;20814;49.364;8.804;2023-02-15T12:58:24;22.35;;;11.20;;
34581;SDS011;20814;49.364;8.804;2023-02-15T13:01:10;26.92;;;11.20;;
34581;SDS011;20814;49.364;8.804;2023-02-15T13:06:22;23.65;;;10.55;;
34581;SDS011;20814;49.364;8.804;2023-02-15T13:08:48;27.50;;;11.55;;
34581;SDS011;20814;49.364;8.804;2023-02-15T13:11:15;22.85;;;10.52;;
34581;SDS011;20814;49.364;8.804;2023-02-15T13:13:54;24.52;;;10.48;;
34581;SDS011;20814;49.364;8.804;2023-02-15T13:16:30;20.88;;;9.35;;
34581;SDS011;20814;49.364;8.804;2023-02-15T13:18:56;22.48;;;9.63;;
34581;SDS011;20814;49.364;8.804;2023-02-15T13:21:33;23.08;;;10.70;;
34581;SDS011;20814;49.364;8.804;2023-02-15T13:26:32;25.42;;;10.70;;
34581;SDS011;20814;49.364;8.804;2023-02-15T13:29:01;22.02;;;10.25;;
34581;SDS011;20814;49.364;8.804;2023-02-15T13:31:30;23.50;;;11.30;;
34581;SDS011;20814;49.364;8.804;2023-02-15T13:33:59;22.95;;;11.13;;
34581;SDS011;20814;49.364;8.804;2023-02-15T13:44:51;24.88;;;11.27;;
34581;SDS011;20814;49.364;8.804;2023-02-15T13:47:23;25.40;;;11.13;;
34581;SDS011;20814;49.364;8.804;2023-02-15T13:50:05;24.92;;;11.70;;
34581;SDS011;20814;49.364;8.804;2023-02-15T13:52:40;21.27;;;10.05;;
34581;SDS011;20814;49.364;8.804;2023-02-15T13:55:16;21.13;;;10.38;;
34581;SDS011;20814;49.364;8.804;2023-02-15T14:00:31;21.35;;;11.02;;
34581;SDS011;20814;49.364;8.804;2023-02-15T14:08:11;24.83;;;10.60;;
34581;SDS011;20814;49.364;8.804;2023-02-15T14:10:43;23.77;;;11.55;;
34581;SDS011;20814;49.364;8.804;2023-02-15T14:13:26;24.02;;;10.25;;
34581;SDS011;20814;49.364;8.804;2023-02-15T14:21:02;26.08;;;11.13;;
34581;SDS011;20814;49.364;8.804;2023-02-15T14:25:58;23.48;;;10.32;;
34581;SDS011;20814;49.364;8.804;2023-02-15T14:30:58;24.15;;;11.38;;
34581;SDS011;20814;49.364;8.804;2023-02-15T14:33:31;21.67;;;10.23;;
34581;SDS011;20814;49.364;8.804;2023-02-15T14:35:56;23.88;;;11.30;;
34581;SDS011;20814;49.364;8.804;2023-02-15T14:46:20;20.95;;;10.85;;
34581;SDS011;20814;49.364;8.804;2023-02-15T14:48:48;24.58;;;10.38;;
34581;SDS011;20814;49.364;8.804;2023-02-15T14:53:58;24.63;;;11.05;;
34581;SDS011;20814;49.364;8.804;2023-02-15T14:56:23;21.27;;;10.07;;
34581;SDS011;20814;49.364;8.804;2023-02-15T15:01:15;21.42;;;10.85;;
34581;SDS011;20814;49.364;8.804;2023-02-15T15:03:44;25.00;;;11.55;;
34581;SDS011;20814;49.364;8.804;2023-02-15T15:06:23;23.02;;;11.00;;
34581;SDS011;20814;49.364;8.804;2023-02-15T15:08:49;23.58;;;10.80;;
34581;SDS011;20814;49.364;8.804;2023-02-15T15:11:36;24.63;;;11.50;;
34581;SDS011;20814;49.364;8.804;2023-02-15T15:14:01;24.05;;;11.00;;
34581;SDS011;20814;49.364;8.804;2023-02-15T15:19:09;23.50;;;11.15;;
34581;SDS011;20814;49.364;8.804;2023-02-15T15:21:51;25.30;;;10.85;;
34581;SDS011;20814;49.364;8.804;2023-02-15T15:29:45;23.75;;;11.43;;
34581;SDS011;20814;49.364;8.804;2023-02-15T15:32:10;20.58;;;10.15;;
34581;SDS011;20814;49.364;8.804;2023-02-15T15:50:14;22.40;;;10.55;;
34581;SDS011;20814;49.364;8.804;2023-02-15T15:52:41;20.02;;;10.10;;
34581;SDS011;20814;49.364;8.804;2023-02-15T15:55:14;22.77;;;10.25;;
34581;SDS011;20814;49.364;8.804;2023-02-15T15:57:41;32.30;;;12.88;;
34581;SDS011;20814;49.364;8.804;2023-02-15T16:00:41;22.52;;;10.95;;
34581;SDS011;20814;49.364;8.804;2023-02-15T16:02:59;22.08;;;10.55;;
34581;SDS011;20814;49.364;8.804;2023-02-15T16:05:24;22.33;;;11.35;;
34581;SDS011;20814;49.364;8.804;2023-02-15T16:07:49;23.33;;;10.48;;
34581;SDS011;20814;49.364;8.804;2023-02-15T16:10:25;23.60;;;11.43;;
34581;SDS011;20814;49.364;8.804;2023-02-15T16:12:50;25.85;;;11.27;;
34581;SDS011;20814;49.364;8.804;2023-02-15T16:15:18;22.88;;;11.50;;
34581;SDS011;20814;49.364;8.804;2023-02-15T16:17:44;25.75;;;12.48;;
34581;SDS011;20814;49.364;8.804;2023-02-15T16:20:17;28.00;;;12.20;;
34581;SDS011;20814;49.364;8.804;2023-02-15T16:22:44;29.10;;;11.85;;
34581;SDS011;20814;49.364;8.804;2023-02-15T16:25:17;25.83;;;12.13;;
34581;SDS011;20814;49.364;8.804;2023-02-15T16:27:45;37.15;;;14.77;;
34581;SDS011;20814;49.364;8.804;2023-02-15T16:32:42;28.08;;;12.57;;
34581;SDS011;20814;49.364;8.804;2023-02-15T16:35:17;25.88;;;11.98;;
34581;SDS011;20814;49.364;8.804;2023-02-15T16:37:43;24.15;;;12.00;;
34581;SDS011;20814;49.364;8.804;2023-02-15T16:40:25;27.83;;;11.27;;
34581;SDS011;20814;49.364;8.804;2023-02-15T16:42:51;28.92;;;11.88;;
34581;SDS011;20814;49.364;8.804;2023-02-15T16:45:18;24.70;;;10.93;;
34581;SDS011;20814;49.364;8.804;2023-02-15T16:47:45;19.85;;;10.80;;
34581;SDS011;20814;49.364;8.804;2023-02-15T16:50:19;28.52;;;12.68;;
34581;SDS011;20814;49.364;8.804;2023-02-15T16:52:44;20.58;;;11.00;;
34581;SDS011;20814;49.364;8.804;2023-02-15T16:55:17;29.33;;;11.27;;
34581;SDS011;20814;49.364;8.804;2023-02-15T16:57:43;22.20;;;10.65;;
34581;SDS011;20814;49.364;8.804;2023-02-15T17:00:19;24.67;;;11.02;;
34581;SDS011;20814;49.364;8.804;2023-02-15T17:13:30;22.83;;;9.18;;
34581;SDS011;20814;49.364;8.804;2023-02-15T17:18:23;21.67;;;10.05;;
34581;SDS011;20814;49.364;8.804;2023-02-15T17:20:49;20.75;;;9.35;;